Time;durP1;ratioP1;P1;durP2;ratioP2;P2;SDS_P1;SDS_P2;PMS_P1;PMS_P2;Temp;Humidity;BMP_temperature;BMP_pressure;BME280_temperature;BME280_humidity;BME280_pressure;Samples;Min_cycle;Max_cycle;Signal;HPM_P1;HPM_P2
2022/10/02 00:00:06;;;;;;;6.90;1.48;;;17.30;97.90;;;;;;5061385;28;20445;-80
2022/10/02 00:02:46;;;;;;;10.38;1.75;;;17.30;98.10;;;;;;5066126;28;20040;-79
2022/10/02 00:05:26;;;;;;;8.10;1.30;;;17.30;98.10;;;;;;5057159;28;20421;-80
2022/10/02 00:08:11;;;;;;;7.88;1.48;;;17.30;98.20;;;;;;5058900;28;20032;-80
2022/10/02 00:10:40;;;;;;;8.88;1.90;;;17.30;98.30;;;;;;5073470;28;20028;-79
2022/10/02 00:13:11;;;;;;;8.10;1.40;;;17.30;98.30;;;;;;5060639;28;20021;-80
2022/10/02 00:15:40;;;;;;;8.88;1.75;;;17.40;98.50;;;;;;5066853;28;20031;-80
2022/10/02 00:18:13;;;;;;;7.50;1.60;;;17.30;98.50;;;;;;5066485;28;20028;-81
2022/10/02 00:20:54;;;;;;;6.35;1.38;;;17.40;98.50;;;;;;5062492;28;20112;-80
2022/10/02 00:23:34;;;;;;;9.85;1.55;;;17.40;98.70;;;;;;5058056;28;20036;-80
2022/10/02 00:26:12;;;;;;;11.38;1.60;;;17.40;98.80;;;;;;5058740;28;20316;-80
2022/10/02 00:29:13;;;;;;;10.27;1.67;;;17.40;98.70;;;;;;5050259;28;20319;-80
2022/10/02 00:31:46;;;;;;;8.00;1.63;;;17.40;98.70;;;;;;5058339;28;20020;-79
2022/10/02 00:34:30;;;;;;;8.25;1.50;;;17.50;98.80;;;;;;5085124;28;20713;-80
2022/10/02 00:37:15;;;;;;;8.40;1.30;;;17.50;98.80;;;;;;5066780;28;20032;-80
2022/10/02 00:39:49;;;;;;;9.68;1.50;;;17.50;98.90;;;;;;5083772;28;20036;-80
2022/10/02 00:42:33;;;;;;;10.10;1.70;;;17.50;99.20;;;;;;5055229;27;20584;-80
2022/10/02 00:45:32;;;;;;;8.13;1.60;;;17.50;98.90;;;;;;5056569;28;20726;-79
2022/10/02 00:48:25;;;;;;;8.75;1.63;;;17.50;98.80;;;;;;5062512;28;20120;-80
2022/10/02 00:51:12;;;;;;;7.20;1.33;;;17.50;99.10;;;;;;5057506;28;20268;-80
2022/10/02 00:54:03;;;;;;;8.35;1.50;;;17.60;99.00;;;;;;5081383;28;20023;-80
2022/10/02 00:56:35;;;;;;;10.45;1.33;;;17.60;98.80;;;;;;5074647;28;20024;-80
2022/10/02 00:59:25;;;;;;;10.13;1.73;;;17.60;99.10;;;;;;5073966;28;20585;-81
2022/10/02 01:01:52;;;;;;;9.30;1.90;;;17.60;99.10;;;;;;5080759;28;20582;-78
2022/10/02 01:04:31;;;;;;;9.05;1.23;;;17.60;99.30;;;;;;5077100;28;20376;-77
2022/10/02 01:06:59;;;;;;;8.80;1.30;;;17.60;99.10;;;;;;5072035;28;20229;-78
2022/10/02 01:09:25;;;;;;;7.28;1.35;;;17.60;99.30;;;;;;5048782;28;20020;-79
2022/10/02 01:11:51;;;;;;;7.43;1.50;;;17.50;99.10;;;;;;5068244;28;20035;-79
2022/10/02 01:14:17;;;;;;;6.88;1.65;;;17.50;99.00;;;;;;5070902;28;20095;-79
2022/10/02 01:16:44;;;;;;;6.80;1.40;;;17.50;99.30;;;;;;5054876;28;20438;-80
2022/10/02 01:19:25;;;;;;;8.13;1.50;;;17.40;98.90;;;;;;5063230;28;20612;-79
2022/10/02 01:22:01;;;;;;;5.22;1.13;;;17.40;98.90;;;;;;5052278;28;20016;-79
2022/10/02 01:24:46;;;;;;;5.90;1.13;;;17.40;99.10;;;;;;5068631;28;20031;-79
2022/10/02 01:27:11;;;;;;;7.72;1.30;;;17.30;99.10;;;;;;5051688;28;20659;-79
2022/10/02 01:29:37;;;;;;;6.80;1.20;;;17.30;99.20;;;;;;5042546;28;20502;-79
2022/10/02 01:32:03;;;;;;;5.88;1.60;;;17.20;99.30;;;;;;5074628;28;20051;-80
2022/10/02 01:34:30;;;;;;;11.05;1.27;;;17.20;99.30;;;;;;5029922;28;20056;-80
2022/10/02 01:36:56;;;;;;;7.53;1.30;;;17.10;99.40;;;;;;5067224;28;20598;-80
2022/10/02 01:39:23;;;;;;;6.78;1.13;;;17.10;99.50;;;;;;5058001;28;20021;-79
2022/10/02 01:41:49;;;;;;;7.50;1.40;;;17.10;99.60;;;;;;5070345;28;20101;-79
2022/10/02 01:44:15;;;;;;;9.37;1.67;;;17.00;99.80;;;;;;5067388;28;20184;-80
2022/10/02 01:47:08;;;;;;;7.70;1.40;;;17.00;99.90;;;;;;5055015;28;20305;-79
2022/10/02 01:50:16;;;;;;;7.32;1.20;;;17.00;99.90;;;;;;5072854;28;20047;-79
2022/10/02 01:52:53;;;;;;;7.70;1.42;;;17.00;99.90;;;;;;5073575;28;20089;-80
2022/10/02 01:55:47;;;;;;;7.35;1.40;;;16.90;99.90;;;;;;5080289;28;20492;-78
2022/10/02 01:58:25;;;;;;;9.77;1.50;;;16.90;99.90;;;;;;5075427;27;20013;-80
2022/10/02 02:01:03;;;;;;;8.00;1.40;;;16.90;99.90;;;;;;5042461;28;20089;-78
2022/10/02 02:04:00;;;;;;;6.55;1.27;;;16.90;99.90;;;;;;5068735;28;20748;-80
2022/10/02 02:06:42;;;;;;;7.00;1.40;;;16.90;99.90;;;;;;5056697;28;20393;-80
2022/10/02 02:09:41;;;;;;;5.03;1.38;;;16.90;99.90;;;;;;5079977;28;20077;-79
2022/10/02 02:12:44;;;;;;;7.05;1.58;;;16.90;99.90;;;;;;5045901;28;20511;-80
2022/10/02 02:15:32;;;;;;;7.57;1.90;;;16.90;99.90;;;;;;4992792;28;20021;-80
2022/10/02 02:18:09;;;;;;;8.68;1.80;;;16.90;99.90;;;;;;5055083;28;20426;-79
2022/10/02 02:20:43;;;;;;;7.38;1.40;;;16.90;99.90;;;;;;5075877;28;20099;-80
2022/10/02 02:23:19;;;;;;;8.10;1.60;;;16.90;99.90;;;;;;5073577;28;20269;-80
2022/10/02 02:25:50;;;;;;;6.18;1.50;;;16.90;99.90;;;;;;5062273;28;20064;-80
2022/10/02 02:28:19;;;;;;;7.90;1.50;;;16.90;99.90;;;;;;5069031;28;20043;-79
2022/10/02 02:30:49;;;;;;;9.35;1.92;;;16.90;99.90;;;;;;5032665;28;20031;-80
2022/10/02 02:33:21;;;;;;;7.90;1.63;;;16.90;99.90;;;;;;5092244;28;20029;-78
2022/10/02 02:35:52;;;;;;;7.63;1.52;;;16.90;99.90;;;;;;5055715;28;20342;-79
2022/10/02 02:38:36;;;;;;;6.25;1.75;;;17.00;99.90;;;;;;5075176;28;20013;-79
2022/10/02 02:41:12;;;;;;;7.57;1.33;;;16.90;99.90;;;;;;5069376;28;20428;-80
2022/10/02 02:43:49;;;;;;;7.43;1.60;;;16.90;99.90;;;;;;5070644;28;20396;-80
2022/10/02 02:46:32;;;;;;;8.30;1.67;;;17.00;99.90;;;;;;5040051;28;20093;-80
2022/10/02 02:49:10;;;;;;;5.43;1.48;;;16.90;99.90;;;;;;5081307;28;20086;-80
2022/10/02 02:51:41;;;;;;;6.25;1.40;;;17.00;99.90;;;;;;5070712;28;20036;-80
2022/10/02 02:54:16;;;;;;;6.97;1.50;;;17.00;99.90;;;;;;5064865;28;20032;-79
2022/10/02 02:56:44;;;;;;;7.50;1.40;;;16.90;99.90;;;;;;5073199;27;20107;-79
2022/10/02 02:59:12;;;;;;;3.35;1.30;;;16.90;99.90;;;;;;5072950;28;20520;-79
2022/10/02 03:01:38;;;;;;;4.40;1.20;;;16.90;99.90;;;;;;5081402;28;20095;-80
2022/10/02 03:04:04;;;;;;;6.28;1.38;;;16.90;99.90;;;;;;5069799;28;20023;-80
2022/10/02 03:06:36;;;;;;;6.80;1.40;;;16.90;99.90;;;;;;5064688;28;20027;-81
2022/10/02 03:09:05;;;;;;;5.65;1.33;;;16.90;99.90;;;;;;5073183;28;20031;-79
2022/10/02 03:11:56;;;;;;;8.93;1.40;;;16.90;99.90;;;;;;5063769;28;20020;-80
2022/10/02 03:14:35;;;;;;;5.25;1.27;;;16.90;99.90;;;;;;5067667;28;20684;-79
2022/10/02 03:17:35;;;;;;;3.87;1.00;;;16.80;99.90;;;;;;5057456;28;20038;-79
2022/10/02 03:20:15;;;;;;;4.68;1.10;;;16.80;99.90;;;;;;5081139;28;20840;-79
2022/10/02 03:22:59;;;;;;;5.00;1.08;;;16.80;99.90;;;;;;5081248;27;20071;-79
2022/10/02 03:25:43;;;;;;;5.00;1.25;;;16.80;99.90;;;;;;5060453;28;20101;-80
2022/10/02 03:28:13;;;;;;;4.53;1.13;;;16.70;99.90;;;;;;5065705;28;20036;-78
2022/10/02 03:30:41;;;;;;;8.23;1.23;;;16.70;99.90;;;;;;5043279;28;20031;-79
2022/10/02 03:33:09;;;;;;;5.85;1.25;;;16.70;99.90;;;;;;5061457;28;20426;-79
2022/10/02 03:35:36;;;;;;;4.47;1.10;;;16.70;99.90;;;;;;5076140;28;20485;-79
2022/10/02 03:38:05;;;;;;;3.88;1.10;;;16.70;99.90;;;;;;5061465;28;20117;-79
2022/10/02 03:40:31;;;;;;;4.03;1.20;;;16.70;99.90;;;;;;5064954;28;20024;-78
2022/10/02 03:42:57;;;;;;;4.40;1.03;;;16.70;99.90;;;;;;5053663;28;20233;-80
2022/10/02 03:45:27;;;;;;;6.80;1.25;;;16.70;99.90;;;;;;5081926;28;22974;-80
2022/10/02 03:47:52;;;;;;;6.25;1.20;;;16.60;99.90;;;;;;5082960;28;20181;-79
2022/10/02 03:50:18;;;;;;;3.80;1.13;;;16.60;99.90;;;;;;5074920;28;20257;-80
2022/10/02 03:52:44;;;;;;;6.38;1.38;;;16.60;99.90;;;;;;5080164;28;20414;-81
2022/10/02 03:55:31;;;;;;;6.03;1.48;;;16.70;99.90;;;;;;5066826;28;20047;-80
2022/10/02 03:57:58;;;;;;;6.50;1.00;;;16.70;99.90;;;;;;5074506;28;20445;-78
2022/10/02 04:00:40;;;;;;;2.88;0.80;;;16.60;99.90;;;;;;5069327;28;20594;-79
2022/10/02 04:03:41;;;;;;;7.00;1.10;;;16.60;99.90;;;;;;5073441;28;20020;-79
2022/10/02 04:06:41;;;;;;;3.67;0.90;;;16.60;99.90;;;;;;4990202;28;20055;-79
2022/10/02 04:09:16;;;;;;;4.78;1.00;;;16.60;99.90;;;;;;5063258;28;20047;-78
2022/10/02 04:12:02;;;;;;;4.97;1.10;;;16.60;99.90;;;;;;5052850;28;20055;-79
2022/10/02 04:14:46;;;;;;;7.18;1.20;;;16.60;99.90;;;;;;5076965;28;20027;-80
2022/10/02 04:17:21;;;;;;;3.00;0.93;;;16.60;99.90;;;;;;5051048;28;20239;-80
2022/10/02 04:19:53;;;;;;;4.28;1.05;;;16.60;99.90;;;;;;5069693;28;20024;-79
2022/10/02 04:22:27;;;;;;;2.88;1.10;;;16.60;99.90;;;;;;5068047;28;20128;-80
2022/10/02 04:25:11;;;;;;;5.63;1.23;;;16.50;99.90;;;;;;5078158;28;20024;-80
2022/10/02 04:27:48;;;;;;;3.45;1.05;;;16.50;99.90;;;;;;5068740;28;20115;-81
2022/10/02 04:30:17;;;;;;;5.35;1.00;;;16.50;99.90;;;;;;5065741;28;20024;-81
2022/10/02 04:32:42;;;;;;;3.65;1.00;;;16.50;99.90;;;;;;5066744;28;20066;-81
2022/10/02 04:35:41;;;;;;;2.53;0.90;;;16.50;99.90;;;;;;5047657;28;20316;-81
2022/10/02 04:38:31;;;;;;;3.45;1.13;;;16.50;99.90;;;;;;5064374;28;20088;-80
2022/10/02 04:41:34;;;;;;;4.20;1.00;;;16.50;99.90;;;;;;5061657;28;20124;-81
2022/10/02 04:44:35;;;;;;;3.35;0.93;;;16.40;99.90;;;;;;5062599;28;20488;-80
2022/10/02 04:47:25;;;;;;;4.60;1.00;;;16.40;99.90;;;;;;5036101;28;20408;-81
2022/10/02 04:50:17;;;;;;;4.05;1.00;;;16.40;99.90;;;;;;5063158;28;20040;-80
2022/10/02 04:53:10;;;;;;;6.25;0.95;;;16.40;99.90;;;;;;5043516;28;20012;-81
2022/10/02 04:56:07;;;;;;;3.22;0.80;;;16.30;99.90;;;;;;5078234;28;20088;-81
2022/10/02 04:58:56;;;;;;;2.10;0.90;;;16.30;99.90;;;;;;5048490;28;20016;-81
2022/10/02 05:01:39;;;;;;;2.20;1.00;;;16.30;99.90;;;;;;5055561;28;20247;-81
2022/10/02 05:04:34;;;;;;;2.45;0.80;;;16.30;99.90;;;;;;5043019;28;20039;-82
2022/10/02 05:07:08;;;;;;;3.05;0.95;;;16.30;99.90;;;;;;5055066;28;20024;-81
2022/10/02 05:10:00;;;;;;;2.17;0.85;;;16.30;99.90;;;;;;5040842;28;20637;-81
2022/10/02 05:12:37;;;;;;;2.65;0.77;;;16.30;99.90;;;;;;5065433;28;20020;-82
2022/10/02 05:15:28;;;;;;;3.87;0.90;;;16.20;99.90;;;;;;5082969;28;20025;-80
2022/10/02 05:18:14;;;;;;;2.58;0.75;;;16.20;99.90;;;;;;5063964;28;20132;-81
2022/10/02 05:20:39;;;;;;;3.00;1.00;;;16.20;99.90;;;;;;5069781;28;20454;-81
2022/10/02 05:23:20;;;;;;;4.50;1.00;;;16.20;99.90;;;;;;5044850;28;20082;-81
2022/10/02 05:26:01;;;;;;;4.97;0.80;;;16.20;99.90;;;;;;5064757;28;20256;-82
2022/10/02 05:28:38;;;;;;;3.58;0.90;;;16.20;99.90;;;;;;5042155;28;21945;-81
2022/10/02 05:31:28;;;;;;;4.35;1.05;;;16.20;99.90;;;;;;5061125;28;20063;-81
2022/10/02 05:34:15;;;;;;;4.95;0.98;;;16.10;99.90;;;;;;5066195;28;20052;-81
2022/10/02 05:37:16;;;;;;;5.53;1.00;;;16.20;99.90;;;;;;5043202;28;20156;-82
2022/10/02 05:39:54;;;;;;;2.92;0.90;;;16.20;99.90;;;;;;5051913;28;20270;-81
2022/10/02 05:42:34;;;;;;;5.63;0.90;;;16.10;99.90;;;;;;5064969;28;20085;-81
2022/10/02 05:45:30;;;;;;;3.22;0.90;;;16.10;99.90;;;;;;5065269;28;20024;-81
2022/10/02 05:48:22;;;;;;;5.18;1.00;;;16.10;99.90;;;;;;5059253;28;20037;-80
2022/10/02 05:50:52;;;;;;;3.23;1.00;;;16.10;99.90;;;;;;5037076;28;20059;-81
2022/10/02 05:53:23;;;;;;;3.05;0.73;;;16.10;99.90;;;;;;5056997;28;20023;-81
2022/10/02 05:55:54;;;;;;;2.80;0.90;;;16.10;99.90;;;;;;5057448;28;20266;-81
2022/10/02 05:58:46;;;;;;;4.60;1.00;;;16.10;99.90;;;;;;5063627;28;20665;-81
2022/10/02 06:01:24;;;;;;;4.40;0.82;;;16.00;99.90;;;;;;5053542;28;20081;-80
2022/10/02 06:04:16;;;;;;;3.27;1.00;;;16.00;99.90;;;;;;5052634;28;20033;-81
2022/10/02 06:06:52;;;;;;;2.60;0.70;;;16.00;99.90;;;;;;5065969;28;20167;-80
2022/10/02 06:09:25;;;;;;;3.33;1.02;;;16.00;99.90;;;;;;5067427;27;20031;-80
2022/10/02 06:11:58;;;;;;;4.43;0.98;;;16.00;99.90;;;;;;5063200;28;20094;-80
2022/10/02 06:14:35;;;;;;;3.63;1.00;;;16.00;99.90;;;;;;5061548;28;20032;-80
2022/10/02 06:17:09;;;;;;;4.27;1.30;;;15.90;99.90;;;;;;5069928;28;20514;-79
2022/10/02 06:20:00;;;;;;;3.33;0.90;;;15.90;99.90;;;;;;5057699;28;20196;-81
2022/10/02 06:22:33;;;;;;;3.15;0.80;;;15.90;99.90;;;;;;5059026;28;20518;-81
2022/10/02 06:25:04;;;;;;;2.40;0.93;;;15.90;99.90;;;;;;5045847;28;20059;-82
2022/10/02 06:27:34;;;;;;;4.00;0.90;;;15.90;99.90;;;;;;5061434;28;20025;-84
2022/10/02 06:30:07;;;;;;;4.17;1.10;;;15.90;99.90;;;;;;5066188;28;20023;-84
2022/10/02 06:32:36;;;;;;;2.83;0.90;;;15.90;99.90;;;;;;5045620;28;20243;-84
2022/10/02 06:35:11;;;;;;;4.38;0.80;;;15.90;99.90;;;;;;5047034;28;20077;-81
2022/10/02 06:37:49;;;;;;;2.83;1.05;;;15.90;99.90;;;;;;5064123;28;20291;-81
2022/10/02 06:40:41;;;;;;;4.68;1.15;;;15.90;99.90;;;;;;5027534;28;21009;-81
2022/10/02 06:43:31;;;;;;;4.03;0.80;;;15.90;99.90;;;;;;5073887;28;20497;-81
2022/10/02 06:46:14;;;;;;;2.85;1.00;;;15.90;99.90;;;;;;5064889;28;20028;-80
2022/10/02 06:48:47;;;;;;;2.60;1.00;;;16.00;99.90;;;;;;5042357;28;20164;-80
2022/10/02 06:51:21;;;;;;;3.83;1.00;;;15.90;99.90;;;;;;5064908;28;20093;-82
2022/10/02 06:54:10;;;;;;;4.20;1.00;;;16.00;99.90;;;;;;5073730;28;20399;-82
2022/10/02 06:57:10;;;;;;;4.17;0.90;;;15.90;99.90;;;;;;5047084;28;20622;-81
2022/10/02 06:59:54;;;;;;;3.42;0.90;;;16.00;99.90;;;;;;5061882;28;20032;-82
2022/10/02 07:02:22;;;;;;;3.65;1.00;;;16.00;99.90;;;;;;5073831;28;20397;-81
2022/10/02 07:05:03;;;;;;;5.82;0.90;;;16.00;99.90;;;;;;5044869;28;20112;-82
2022/10/02 07:07:54;;;;;;;3.78;0.90;;;16.10;99.90;;;;;;5055677;28;20105;-81
2022/10/02 07:10:25;;;;;;;3.30;0.80;;;16.10;99.90;;;;;;5042388;28;20115;-81
2022/10/02 07:13:11;;;;;;;4.03;1.02;;;16.10;99.90;;;;;;5053441;28;20428;-81
2022/10/02 07:15:49;;;;;;;4.63;0.98;;;16.20;99.90;;;;;;5061524;28;20024;-80
2022/10/02 07:18:26;;;;;;;4.95;1.10;;;16.20;99.90;;;;;;5055644;28;20056;-80
2022/10/02 07:20:54;;;;;;;4.03;1.00;;;16.20;99.90;;;;;;5065068;28;20059;-80
2022/10/02 07:23:43;;;;;;;2.73;0.90;;;16.20;99.90;;;;;;5047546;28;20113;-80
2022/10/02 07:26:58;;;;;;;5.22;1.10;;;16.30;99.90;;;;;;5072327;28;20024;-81
2022/10/02 07:29:50;;;;;;;3.15;0.90;;;16.30;99.90;;;;;;5001458;28;20055;-81
2022/10/02 07:32:47;;;;;;;2.53;0.90;;;16.30;99.90;;;;;;5066818;28;20020;-81
2022/10/02 07:35:15;;;;;;;1.95;0.80;;;16.30;99.90;;;;;;5056907;28;20062;-81
2022/10/02 07:38:00;;;;;;;5.43;1.00;;;16.30;99.90;;;;;;5055860;28;20036;-81
2022/10/02 07:40:30;;;;;;;4.57;1.08;;;16.40;99.90;;;;;;5075368;28;20401;-83
2022/10/02 07:43:20;;;;;;;2.60;0.95;;;16.40;99.90;;;;;;5057104;28;20028;-82
2022/10/02 07:46:00;;;;;;;3.88;0.95;;;16.40;99.90;;;;;;5054895;28;21540;-81
2022/10/02 07:48:31;;;;;;;5.45;1.38;;;16.50;99.90;;;;;;5034764;28;20032;-79
2022/10/02 07:54:38;;;;;;;2.95;0.95;;;16.50;99.90;;;;;;5079014;27;20409;-82
2022/10/02 07:57:43;;;;;;;4.63;0.93;;;16.50;99.90;;;;;;5061608;28;20016;-81
2022/10/02 08:00:17;;;;;;;3.80;0.88;;;16.50;99.90;;;;;;5035015;28;20040;-82
2022/10/02 08:02:56;;;;;;;2.55;1.00;;;16.60;99.90;;;;;;5076714;27;20021;-80
2022/10/02 08:05:26;;;;;;;2.30;0.90;;;16.60;99.90;;;;;;5058655;28;20461;-80
2022/10/02 08:07:56;;;;;;;2.38;0.90;;;16.60;99.90;;;;;;5061710;28;20032;-79
2022/10/02 08:10:27;;;;;;;3.72;1.10;;;16.60;99.90;;;;;;5036414;28;20088;-81
2022/10/02 08:13:03;;;;;;;3.83;1.05;;;16.70;99.90;;;;;;5044466;28;20094;-81
2022/10/02 08:15:34;;;;;;;5.35;1.25;;;16.80;99.90;;;;;;5043988;28;20480;-80
2022/10/02 08:18:12;;;;;;;2.33;0.90;;;16.80;99.90;;;;;;5075285;28;20031;-81
2022/10/02 08:20:42;;;;;;;4.47;1.00;;;17.00;99.90;;;;;;5045194;28;20278;-81
2022/10/02 08:23:40;;;;;;;2.75;1.00;;;17.00;99.90;;;;;;5065742;28;20031;-80
2022/10/02 08:26:20;;;;;;;2.30;0.98;;;17.10;99.90;;;;;;5055995;28;20028;-81
2022/10/02 08:29:04;;;;;;;2.55;1.00;;;17.20;99.90;;;;;;5042047;28;20051;-81
2022/10/02 08:31:33;;;;;;;3.97;0.97;;;17.20;99.90;;;;;;5051095;28;20378;-80
2022/10/02 08:34:31;;;;;;;2.97;0.90;;;17.30;99.90;;;;;;5075729;28;20024;-80
2022/10/02 08:37:22;;;;;;;2.42;0.82;;;17.30;99.90;;;;;;5036160;28;20063;-81
2022/10/02 08:40:49;;;;;;;3.38;1.00;;;17.40;99.90;;;;;;5068368;28;20579;-81
2022/10/02 08:43:23;;;;;;;3.75;1.00;;;17.40;99.90;;;;;;5041720;28;20027;-81
2022/10/02 08:46:05;;;;;;;3.53;1.07;;;17.40;99.90;;;;;;5064134;28;20035;-82
2022/10/02 08:48:53;;;;;;;3.35;1.00;;;17.40;99.90;;;;;;5074422;27;20059;-81
2022/10/02 08:51:38;;;;;;;2.47;1.20;;;17.40;99.90;;;;;;5039213;28;20329;-82
2022/10/02 08:54:04;;;;;;;3.67;1.50;;;17.40;99.90;;;;;;5038596;28;20146;-81
2022/10/02 08:56:45;;;;;;;2.67;1.10;;;17.50;99.90;;;;;;5048603;28;20032;-82
2022/10/02 08:59:19;;;;;;;3.28;1.10;;;17.50;99.90;;;;;;5064813;28;20365;-80
2022/10/02 09:01:52;;;;;;;2.58;0.90;;;17.50;99.90;;;;;;5052693;28;20561;-80
2022/10/02 09:04:18;;;;;;;2.67;1.00;;;17.50;99.90;;;;;;5050479;28;20394;-81
2022/10/02 09:07:05;;;;;;;2.90;1.10;;;17.50;99.90;;;;;;5053901;28;20117;-81
2022/10/02 09:09:49;;;;;;;3.22;1.00;;;17.50;99.90;;;;;;5053945;28;20047;-79
2022/10/02 09:12:34;;;;;;;3.42;1.20;;;17.60;99.90;;;;;;5063641;28;20029;-81
2022/10/02 09:15:21;;;;;;;3.55;1.20;;;17.60;99.90;;;;;;5039083;28;20040;-81
2022/10/02 09:18:26;;;;;;;2.50;1.00;;;17.60;99.90;;;;;;5065586;28;20229;-80
2022/10/02 09:21:15;;;;;;;2.67;1.00;;;17.60;99.90;;;;;;5057479;28;20361;-80
2022/10/02 09:24:25;;;;;;;3.40;1.15;;;17.70;99.90;;;;;;5041414;28;20228;-80
2022/10/02 09:26:56;;;;;;;1.98;0.90;;;17.70;99.90;;;;;;5073065;28;20345;-81
2022/10/02 09:29:54;;;;;;;4.03;1.13;;;17.70;99.90;;;;;;5058720;28;20078;-80
2022/10/02 09:32:33;;;;;;;2.77;1.07;;;17.70;99.90;;;;;;5060163;28;20384;-79
2022/10/02 09:35:05;;;;;;;2.55;1.10;;;17.70;99.90;;;;;;5035539;28;20027;-80
2022/10/02 09:37:49;;;;;;;3.80;1.10;;;17.70;99.90;;;;;;5057515;28;20060;-80
2022/10/02 09:40:42;;;;;;;3.72;1.10;;;17.70;99.90;;;;;;5049552;28;20023;-81
2022/10/02 09:43:08;;;;;;;2.35;1.10;;;17.70;99.90;;;;;;5050616;28;20019;-80
2022/10/02 09:45:51;;;;;;;1.67;1.00;;;17.60;99.90;;;;;;5036392;28;20641;-80
2022/10/02 09:49:08;;;;;;;2.17;1.00;;;17.70;99.90;;;;;;5087825;28;20112;-79
2022/10/02 09:52:01;;;;;;;3.57;1.10;;;17.70;99.90;;;;;;5068566;28;20039;-80
2022/10/02 09:54:54;;;;;;;2.30;1.00;;;17.70;99.90;;;;;;5068278;28;20035;-80
2022/10/02 09:57:51;;;;;;;2.83;1.00;;;17.70;99.90;;;;;;5083599;28;20055;-80
2022/10/02 10:00:55;;;;;;;2.55;1.20;;;17.70;99.90;;;;;;5080588;28;20020;-80
2022/10/02 10:03:59;;;;;;;3.28;1.00;;;17.70;99.90;;;;;;5068460;28;20480;-80
2022/10/02 10:06:31;;;;;;;4.00;1.00;;;17.80;99.90;;;;;;5060942;28;20459;-80
2022/10/02 10:09:12;;;;;;;2.00;1.10;;;17.80;99.90;;;;;;5063365;28;20825;-80
2022/10/02 10:11:46;;;;;;;1.95;1.15;;;17.90;99.90;;;;;;5050409;28;20042;-79
2022/10/02 10:14:47;;;;;;;1.90;0.98;;;17.90;99.90;;;;;;5070254;28;20044;-79
2022/10/02 10:17:41;;;;;;;2.85;1.30;;;18.00;99.90;;;;;;5053193;28;20039;-79
2022/10/02 10:20:35;;;;;;;1.97;1.00;;;18.10;99.90;;;;;;5039987;28;20043;-80
2022/10/02 10:23:13;;;;;;;2.58;1.10;;;18.10;99.90;;;;;;5054484;28;20044;-79
2022/10/02 10:25:54;;;;;;;2.25;1.20;;;18.10;99.90;;;;;;5053785;28;20115;-79
2022/10/02 10:28:44;;;;;;;2.85;1.08;;;18.20;99.90;;;;;;5053113;28;20036;-79
2022/10/02 10:31:31;;;;;;;2.85;1.10;;;18.10;99.90;;;;;;5041504;28;20277;-80
2022/10/02 10:34:25;;;;;;;2.60;1.30;;;18.20;99.90;;;;;;5063922;28;20039;-79
2022/10/02 10:39:54;;;;;;;1.70;1.23;;;18.20;99.90;;;;;;5027843;28;20126;-79
2022/10/02 10:42:50;;;;;;;3.22;1.30;;;18.20;99.90;;;;;;5052458;28;20467;-79
2022/10/02 10:45:22;;;;;;;3.08;1.33;;;18.20;99.90;;;;;;5082120;28;20020;-79
2022/10/02 10:47:47;;;;;;;2.40;1.40;;;18.20;99.90;;;;;;5046087;28;20892;-79
2022/10/02 10:50:23;;;;;;;2.92;1.40;;;18.20;99.90;;;;;;5065114;28;20423;-78
2022/10/02 10:53:21;;;;;;;2.67;1.50;;;18.20;99.90;;;;;;5032318;28;20020;-79
2022/10/02 10:56:08;;;;;;;3.10;1.38;;;18.30;99.90;;;;;;5069263;28;20055;-78
2022/10/02 10:58:46;;;;;;;3.50;1.50;;;18.40;99.90;;;;;;5054733;28;20051;-79
2022/10/02 11:01:22;;;;;;;3.45;1.60;;;18.40;99.90;;;;;;5065122;28;20060;-79
2022/10/02 11:04:14;;;;;;;5.05;1.70;;;18.50;99.90;;;;;;5061346;28;20012;-79
2022/10/02 11:07:01;;;;;;;3.25;1.70;;;18.50;99.90;;;;;;5053662;28;20031;-79
2022/10/02 11:09:38;;;;;;;3.95;1.75;;;18.50;99.90;;;;;;5069488;27;20133;-79
2022/10/02 11:12:22;;;;;;;2.77;1.73;;;18.50;99.90;;;;;;5060047;28;20111;-79
2022/10/02 11:15:10;;;;;;;3.72;1.90;;;18.60;99.90;;;;;;5041825;28;20021;-78
2022/10/02 11:18:01;;;;;;;3.97;1.92;;;18.60;99.90;;;;;;5052242;28;20119;-78
2022/10/02 11:20:49;;;;;;;3.60;1.70;;;18.60;99.90;;;;;;5075321;28;20032;-79
2022/10/02 11:23:43;;;;;;;2.47;1.77;;;18.50;99.90;;;;;;5069225;28;20052;-79
2022/10/02 11:27:06;;;;;;;3.90;1.90;;;18.60;99.90;;;;;;5054972;28;20047;-79
2022/10/02 11:30:08;;;;;;;4.93;1.90;;;18.60;99.90;;;;;;5006543;28;20457;-79
2022/10/02 11:33:02;;;;;;;3.55;1.80;;;18.60;99.90;;;;;;5016498;28;20038;-78
2022/10/02 11:35:47;;;;;;;4.13;2.10;;;18.70;99.90;;;;;;5063656;28;20032;-78
2022/10/02 11:38:44;;;;;;;3.70;2.00;;;18.70;99.90;;;;;;5059868;28;20308;-79
2022/10/02 11:41:32;;;;;;;3.57;1.97;;;18.80;99.90;;;;;;5060075;28;20059;-80
2022/10/02 11:44:29;;;;;;;3.67;2.20;;;18.80;99.90;;;;;;5056851;28;20319;-79
2022/10/02 11:47:14;;;;;;;3.72;1.90;;;18.90;99.90;;;;;;5050070;28;20038;-78
2022/10/02 11:49:57;;;;;;;5.43;1.98;;;18.90;99.90;;;;;;5056883;28;20506;-78
2022/10/02 11:52:35;;;;;;;4.53;2.00;;;18.90;99.90;;;;;;5054114;28;20500;-79
2022/10/02 11:55:31;;;;;;;4.47;1.83;;;18.90;99.90;;;;;;5074524;28;20029;-78
2022/10/02 11:58:15;;;;;;;4.60;1.77;;;18.90;99.90;;;;;;5068774;28;20043;-78
2022/10/02 12:01:06;;;;;;;4.45;1.80;;;18.90;99.90;;;;;;5080338;28;20388;-79
2022/10/02 12:04:01;;;;;;;3.17;1.80;;;18.90;99.90;;;;;;5061565;28;20036;-78
2022/10/02 12:06:27;;;;;;;4.05;1.88;;;18.80;99.90;;;;;;5076595;28;20020;-78
2022/10/02 12:09:21;;;;;;;3.27;2.00;;;18.90;99.90;;;;;;5055179;28;20055;-78
2022/10/02 12:12:05;;;;;;;5.45;2.30;;;18.90;99.90;;;;;;5068033;28;20115;-79
2022/10/02 12:15:12;;;;;;;3.10;1.98;;;18.90;99.90;;;;;;5075262;28;20323;-78
2022/10/02 12:18:09;;;;;;;3.95;2.08;;;18.90;99.90;;;;;;5078138;28;20115;-78
2022/10/02 12:26:57;;;;;;;5.80;2.45;;;19.00;99.90;;;;;;4999093;28;20028;-78
2022/10/02 12:29:50;;;;;;;4.82;2.40;;;19.00;99.90;;;;;;5080138;28;20037;-78
2022/10/02 12:32:35;;;;;;;4.05;2.40;;;19.10;99.90;;;;;;5072759;28;20115;-78
2022/10/02 12:35:03;;;;;;;4.45;2.67;;;19.10;99.90;;;;;;5064559;28;20248;-78
2022/10/02 12:38:01;;;;;;;3.83;2.60;;;19.20;99.90;;;;;;5076877;28;20024;-79
2022/10/02 12:40:45;;;;;;;5.00;2.50;;;19.20;99.90;;;;;;5068122;28;20048;-78
2022/10/02 12:43:30;;;;;;;5.28;2.50;;;19.30;99.90;;;;;;5073487;28;20028;-78
2022/10/02 12:46:38;;;;;;;5.45;2.90;;;19.30;99.90;;;;;;5067656;28;20024;-78
2022/10/02 12:49:11;;;;;;;5.25;2.83;;;19.40;99.90;;;;;;5074145;28;20535;-79
2022/10/02 12:51:56;;;;;;;4.27;2.60;;;19.50;99.90;;;;;;5076099;28;20037;-78
2022/10/02 12:54:24;;;;;;;4.35;2.80;;;19.50;99.90;;;;;;5059849;28;20111;-78
2022/10/02 13:00:15;;;;;;;5.05;2.92;;;19.60;99.90;;;;;;5050281;28;20059;-78
2022/10/02 13:02:56;;;;;;;4.95;2.95;;;19.60;99.90;;;;;;5049460;28;20031;-79
2022/10/02 13:05:50;;;;;;;4.97;2.80;;;19.60;99.90;;;;;;5043268;28;20268;-79
2022/10/02 13:08:30;;;;;;;5.30;2.85;;;19.60;99.90;;;;;;5078193;27;20031;-77
2022/10/02 13:11:26;;;;;;;4.43;2.80;;;19.60;99.90;;;;;;5057215;28;20363;-78
2022/10/02 13:14:33;;;;;;;6.18;2.83;;;19.70;99.90;;;;;;5069274;28;20032;-77
2022/10/02 13:17:25;;;;;;;4.28;2.63;;;19.70;99.90;;;;;;5100477;27;20255;-78
2022/10/02 13:20:27;;;;;;;5.97;3.03;;;19.70;99.90;;;;;;5027353;28;20521;-78
2022/10/02 13:23:18;;;;;;;5.25;3.10;;;19.60;99.90;;;;;;5048356;28;20032;-78
2022/10/02 13:25:57;;;;;;;7.03;3.10;;;19.70;99.90;;;;;;5049427;28;20389;-77
2022/10/02 13:28:50;;;;;;;5.95;3.25;;;19.70;99.90;;;;;;5076019;28;20025;-77
2022/10/02 13:31:19;;;;;;;6.75;3.53;;;19.70;99.90;;;;;;5073588;28;20017;-77
2022/10/02 13:33:47;;;;;;;8.53;3.37;;;19.80;99.90;;;;;;5073526;28;20040;-77
2022/10/02 13:36:27;;;;;;;5.13;3.47;;;19.80;99.90;;;;;;5042208;28;20215;-78
2022/10/02 13:39:15;;;;;;;6.25;3.60;;;19.90;99.90;;;;;;5064566;28;20017;-78
2022/10/02 13:42:10;;;;;;;5.53;3.33;;;19.90;99.90;;;;;;5038124;28;20096;-78
2022/10/02 13:44:50;;;;;;;5.80;3.50;;;19.90;99.90;;;;;;5040286;28;20048;-78
2022/10/02 13:47:48;;;;;;;4.60;3.40;;;19.90;99.90;;;;;;5050604;28;20197;-77
2022/10/02 13:50:47;;;;;;;7.53;3.65;;;19.90;99.90;;;;;;5061860;28;20160;-78
2022/10/02 13:53:38;;;;;;;6.22;4.10;;;19.90;99.90;;;;;;5056402;28;20016;-78
2022/10/02 13:56:09;;;;;;;8.68;4.20;;;20.00;99.90;;;;;;5054187;28;20407;-77
2022/10/02 13:58:55;;;;;;;5.93;3.72;;;20.00;99.90;;;;;;5075716;28;20524;-78
2022/10/02 14:01:36;;;;;;;6.83;3.90;;;20.00;99.90;;;;;;5067765;28;20062;-78
2022/10/02 14:04:18;;;;;;;6.22;3.88;;;20.00;99.90;;;;;;5060875;28;20028;-77
2022/10/02 14:06:53;;;;;;;8.07;3.95;;;20.10;99.90;;;;;;5066020;28;20131;-78
2022/10/02 14:09:48;;;;;;;7.38;4.15;;;20.10;99.90;;;;;;5074606;28;20496;-78
2022/10/02 14:12:19;;;;;;;8.18;4.13;;;20.20;99.90;;;;;;5048903;28;20260;-78
2022/10/02 14:15:12;;;;;;;7.97;4.03;;;20.10;99.90;;;;;;5091813;28;20036;-79
2022/10/02 14:17:57;;;;;;;6.43;4.10;;;20.20;99.90;;;;;;5074115;28;20040;-78